createdAt,value
2023-01-02T00:01:14.590Z,97889.91
2023-01-02T00:03:42.670Z,97889.25
2023-01-02T00:06:11.067Z,97886.25
2023-01-02T00:08:38.960Z,97882.03
2023-01-02T00:11:07.035Z,97880.09
2023-01-02T00:13:36.338Z,97880.44
2023-01-02T00:16:04.479Z,97890.47
2023-01-02T00:18:32.729Z,97889.88
2023-01-02T00:21:04.190Z,97880.59
2023-01-02T00:23:32.260Z,97869.34
2023-01-02T00:26:00.959Z,97860.63
2023-01-02T00:28:29.752Z,97869.75
2023-01-02T00:30:59.502Z,97861.59
2023-01-02T00:33:27.338Z,97855.91
2023-01-02T00:35:55.581Z,97854.56
2023-01-02T00:38:23.549Z,97847.81
2023-01-02T00:40:51.635Z,97844.25
2023-01-02T00:43:21.594Z,97840.28
2023-01-02T00:45:50.198Z,97838.16
2023-01-02T00:48:19.843Z,97828.66
2023-01-02T00:50:48.130Z,97835.69
2023-01-02T00:53:16.024Z,97830.75
2023-01-02T00:55:45.940Z,97836.31
2023-01-02T00:58:14.385Z,97830.88
2023-01-02T01:00:42.848Z,97832.28
2023-01-02T01:03:10.797Z,97823.63
2023-01-02T01:05:41.455Z,97809.13
2023-01-02T01:08:09.651Z,97818.00
2023-01-02T01:10:39.042Z,97823.03
2023-01-02T01:13:07.667Z,97829.03
2023-01-02T01:15:36.952Z,97811.16
2023-01-02T01:18:04.973Z,97803.22
2023-01-02T01:20:33.467Z,97797.06
2023-01-02T01:23:02.729Z,97797.59
2023-01-02T01:25:30.986Z,97791.47
2023-01-02T01:27:58.831Z,97792.13
2023-01-02T01:30:27.081Z,97789.75
2023-01-02T01:32:55.032Z,97781.41
2023-01-02T01:35:23.441Z,97791.38
2023-01-02T01:37:51.315Z,97784.94
2023-01-02T01:40:21.163Z,97798.50
2023-01-02T01:42:50.394Z,97789.63
2023-01-02T01:45:18.997Z,97792.00
2023-01-02T01:47:50.469Z,97796.44
2023-01-02T01:50:22.871Z,97801.41
2023-01-02T01:52:55.879Z,97796.94
2023-01-02T01:55:29.520Z,97799.97
2023-01-02T01:58:01.316Z,97796.56
2023-01-02T02:00:30.220Z,97802.50
2023-01-02T02:02:59.771Z,97788.06
2023-01-02T02:05:31.876Z,97787.19
2023-01-02T02:08:07.941Z,97785.59
2023-01-02T02:10:38.516Z,97773.81
2023-01-02T02:13:06.908Z,97774.66
2023-01-02T02:15:46.437Z,97760.38
2023-01-02T02:18:28.037Z,97757.06
2023-01-02T02:21:01.350Z,97767.38
2023-01-02T02:24:04.100Z,97762.38
2023-01-02T02:26:53.816Z,97759.59
2023-01-02T02:30:03.277Z,97760.25
2023-01-02T02:32:45.739Z,97762.88
2023-01-02T02:35:24.567Z,97760.22
2023-01-02T02:38:02.649Z,97758.75
2023-01-02T02:40:42.510Z,97746.38
2023-01-02T02:43:18.124Z,97736.94
2023-01-02T02:45:57.563Z,97743.19
2023-01-02T02:48:31.971Z,97742.03
2023-01-02T02:51:05.974Z,97724.34
2023-01-02T02:53:41.295Z,97733.75
2023-01-02T02:56:11.237Z,97731.19
2023-01-02T02:58:41.333Z,97737.41
2023-01-02T03:01:18.135Z,97735.38
2023-01-02T03:03:46.416Z,97725.56
2023-01-02T03:06:30.531Z,97723.06
2023-01-02T03:09:11.211Z,97740.09
2023-01-02T03:11:47.511Z,97736.41
2023-01-02T03:14:23.144Z,97730.75
2023-01-02T03:17:00.012Z,97737.72
2023-01-02T03:19:35.551Z,97738.50
2023-01-02T03:22:08.051Z,97748.13
2023-01-02T03:24:38.512Z,97749.44
2023-01-02T03:27:11.046Z,97751.50
2023-01-02T03:29:43.393Z,97744.59
2023-01-02T03:32:16.673Z,97749.00
2023-01-02T03:34:48.715Z,97743.56
2023-01-02T03:37:22.694Z,97743.00
2023-01-02T03:39:55.482Z,97721.72
2023-01-02T03:42:29.155Z,97725.63
2023-01-02T03:45:02.957Z,97726.91
2023-01-02T03:47:39.624Z,97710.06
2023-01-02T03:50:13.954Z,97711.94
2023-01-02T03:52:41.947Z,97701.63
2023-01-02T03:55:11.081Z,97705.53
2023-01-02T03:57:57.008Z,97696.88
2023-01-02T04:00:33.328Z,97698.50
2023-01-02T04:03:07.582Z,97702.81
2023-01-02T04:05:42.004Z,97705.97
2023-01-02T04:08:15.128Z,97696.91
2023-01-02T04:10:46.175Z,97699.00
2023-01-02T04:13:19.532Z,97690.09
2023-01-02T04:15:49.699Z,97702.00
2023-01-02T04:18:24.692Z,97721.38
2023-01-02T04:20:56.219Z,97715.03
2023-01-02T04:23:30.515Z,97712.25
2023-01-02T04:26:03.852Z,97709.28
2023-01-02T04:28:34.382Z,97725.00
2023-01-02T04:31:08.565Z,97721.03
2023-01-02T04:33:43.013Z,97712.94
2023-01-02T04:36:11.914Z,97714.91
2023-01-02T04:38:40.563Z,97725.00
2023-01-02T04:41:10.416Z,97726.97
2023-01-02T04:43:38.625Z,97733.13
2023-01-02T04:46:06.855Z,97729.34
2023-01-02T04:48:35.731Z,97740.75
2023-01-02T04:51:05.233Z,97747.66
2023-01-02T04:53:33.498Z,97742.22
2023-01-02T04:56:01.578Z,97741.28
2023-01-02T04:58:29.863Z,97741.78
2023-01-02T05:00:57.732Z,97751.66
2023-01-02T05:03:25.800Z,97751.28
2023-01-02T05:06:01.443Z,97747.03
2023-01-02T05:08:31.766Z,97739.22
2023-01-02T05:10:59.765Z,97728.91
2023-01-02T05:13:27.650Z,97749.72
2023-01-02T05:15:56.706Z,97751.13
2023-01-02T05:18:24.983Z,97741.63
2023-01-02T05:20:52.955Z,97743.47
2023-01-02T05:23:38.040Z,97736.13
2023-01-02T05:26:12.159Z,97740.25
2023-01-02T05:28:40.328Z,97731.16
2023-01-02T05:31:08.659Z,97732.19
2023-01-02T05:33:37.039Z,97733.16
2023-01-02T05:36:06.139Z,97731.34
2023-01-02T05:38:34.326Z,97725.25
2023-01-02T05:41:03.851Z,97726.13
2023-01-02T05:43:34.065Z,97738.78
2023-01-02T05:46:08.611Z,97734.66
2023-01-02T05:48:37.110Z,97733.47
2023-01-02T05:51:07.212Z,97732.34
2023-01-02T05:53:36.199Z,97746.41
2023-01-02T05:56:08.232Z,97738.81
2023-01-02T05:58:39.452Z,97745.03
2023-01-02T06:01:08.760Z,97728.84
2023-01-02T06:03:37.526Z,97736.38
2023-01-02T06:06:06.842Z,97738.88
2023-01-02T06:08:35.810Z,97729.94
2023-01-02T06:11:05.499Z,97745.66
2023-01-02T06:13:36.543Z,97736.94
2023-01-02T06:16:07.727Z,97741.13
2023-01-02T06:18:38.607Z,97739.81
2023-01-02T06:21:09.064Z,97740.38
2023-01-02T06:23:38.230Z,97739.59
2023-01-02T06:26:07.761Z,97743.53
2023-01-02T06:28:36.310Z,97747.41
2023-01-02T06:31:07.684Z,97741.78
2023-01-02T06:33:36.364Z,97740.66
2023-01-02T06:36:07.178Z,97746.81
2023-01-02T06:38:36.149Z,97742.16
2023-01-02T06:41:05.729Z,97749.25
2023-01-02T06:43:35.817Z,97746.81
2023-01-02T06:46:06.244Z,97742.81
2023-01-02T06:48:36.861Z,97747.03
2023-01-02T06:51:06.566Z,97758.31
2023-01-02T06:53:37.553Z,97741.28
2023-01-02T06:56:06.578Z,97748.06
2023-01-02T06:58:37.022Z,97756.63
2023-01-02T07:01:08.422Z,97753.19
2023-01-02T07:03:37.499Z,97758.97
2023-01-02T07:06:07.259Z,97755.31
2023-01-02T07:08:35.485Z,97743.38
2023-01-02T07:11:11.544Z,97748.94
2023-01-02T07:13:40.414Z,97758.22
2023-01-02T07:16:12.584Z,97761.91
2023-01-02T07:18:40.761Z,97769.00
2023-01-02T07:21:13.991Z,97768.44
2023-01-02T07:23:42.979Z,97768.03
2023-01-02T07:26:11.762Z,97768.72
2023-01-02T07:28:40.905Z,97770.69
2023-01-02T07:31:13.685Z,97768.28
2023-01-02T07:33:42.172Z,97780.28
2023-01-02T07:36:13.878Z,97765.44
2023-01-02T07:38:42.459Z,97768.94
2023-01-02T07:41:15.530Z,97773.41
2023-01-02T07:43:45.187Z,97769.09
2023-01-02T07:46:15.780Z,97772.19
2023-01-02T07:48:44.354Z,97762.69
2023-01-02T07:51:13.787Z,97752.03
2023-01-02T07:53:42.089Z,97754.44
2023-01-02T07:56:10.548Z,97776.78
2023-01-02T07:58:38.718Z,97759.84
2023-01-02T08:01:08.226Z,97779.94
2023-01-02T08:03:38.154Z,97776.34
2023-01-02T08:06:08.176Z,97776.16
2023-01-02T08:08:38.047Z,97787.88
2023-01-02T08:11:07.734Z,97795.81
2023-01-02T08:13:36.521Z,97789.38
2023-01-02T08:16:07.055Z,97808.66
2023-01-02T08:18:35.606Z,97802.25
2023-01-02T08:21:05.655Z,97808.69
2023-01-02T08:23:34.699Z,97809.13
2023-01-02T08:26:04.154Z,97809.44
2023-01-02T08:28:33.360Z,97811.41
2023-01-02T08:31:01.375Z,97800.88
2023-01-02T08:33:30.144Z,97801.09
2023-01-02T08:35:58.023Z,97807.06
2023-01-02T08:38:27.584Z,97799.78
2023-01-02T08:40:55.474Z,97825.75
2023-01-02T08:43:24.218Z,97819.28
2023-01-02T08:45:52.176Z,97822.00
2023-01-02T08:48:21.739Z,97824.63
2023-01-02T08:50:50.427Z,97818.47
2023-01-02T08:53:18.634Z,97822.56
2023-01-02T08:55:48.275Z,97822.38
2023-01-02T08:58:16.515Z,97823.69
2023-01-02T09:00:44.548Z,97828.63
2023-01-02T09:03:12.965Z,97837.19
2023-01-02T09:05:41.184Z,97836.88
2023-01-02T09:08:09.539Z,97845.72
2023-01-02T09:10:37.640Z,97843.13
2023-01-02T09:13:07.482Z,97839.31
2023-01-02T09:15:36.040Z,97838.28
2023-01-02T09:18:04.380Z,97842.97
2023-01-02T09:20:32.797Z,97840.63
2023-01-02T09:23:00.964Z,97841.44
2023-01-02T09:25:29.927Z,97842.34
2023-01-02T09:27:58.241Z,97837.59
2023-01-02T09:30:28.116Z,97831.38
2023-01-02T09:32:56.500Z,97842.31
2023-01-02T09:35:24.843Z,97828.75
2023-01-02T09:37:52.973Z,97835.94
2023-01-02T09:40:21.945Z,97827.06
2023-01-02T09:42:53.440Z,97837.38
2023-01-02T09:45:21.909Z,97842.22
2023-01-02T09:47:55.528Z,97837.31
2023-01-02T09:50:28.110Z,97816.19
2023-01-02T09:52:58.691Z,97835.38
2023-01-02T09:55:36.730Z,97833.66
2023-01-02T09:58:14.419Z,97838.50
2023-01-02T10:00:45.741Z,97853.84
2023-01-02T10:03:29.284Z,97858.44
2023-01-02T10:06:17.718Z,97849.22
2023-01-02T10:08:56.365Z,97863.13
2023-01-02T10:11:33.452Z,97852.81
2023-01-02T10:14:18.810Z,97849.22
2023-01-02T10:16:51.935Z,97844.63
2023-01-02T10:19:28.009Z,97842.38
2023-01-02T10:22:00.333Z,97830.75
2023-01-02T10:24:39.147Z,97828.47
2023-01-02T10:27:14.321Z,97822.66
2023-01-02T10:29:47.483Z,97810.81
2023-01-02T10:32:18.578Z,97819.28
2023-01-02T10:34:55.617Z,97827.31
2023-01-02T10:37:24.220Z,97822.63
2023-01-02T10:39:52.755Z,97823.41
2023-01-02T10:42:22.105Z,97804.56
2023-01-02T10:44:50.470Z,97810.44
2023-01-02T10:47:26.328Z,97815.31
2023-01-02T10:49:55.990Z,97825.91
2023-01-02T10:52:28.951Z,97832.63
2023-01-02T10:55:00.319Z,97822.06
2023-01-02T10:57:40.540Z,97818.28
2023-01-02T11:00:28.395Z,97807.03
2023-01-02T11:02:58.266Z,97802.13
2023-01-02T11:05:30.936Z,97803.81
2023-01-02T11:07:59.747Z,97805.97
2023-01-02T11:10:30.456Z,97801.75
2023-01-02T11:13:06.347Z,97809.50
2023-01-02T11:15:35.827Z,97795.53
2023-01-02T11:18:12.480Z,97788.34
2023-01-02T11:20:49.885Z,97788.41
2023-01-02T11:23:18.263Z,97799.84
2023-01-02T11:25:47.483Z,97802.47
2023-01-02T11:28:19.007Z,97794.13
2023-01-02T11:30:49.389Z,97793.28
2023-01-02T11:33:28.192Z,97805.28
2023-01-02T11:35:59.989Z,97799.22
2023-01-02T11:38:41.107Z,97796.03
2023-01-02T11:41:23.991Z,97798.22
2023-01-02T11:43:56.967Z,97800.50
2023-01-02T11:46:31.677Z,97801.38
2023-01-02T11:49:04.404Z,97800.47
2023-01-02T11:51:38.616Z,97808.44
2023-01-02T11:54:14.755Z,97821.19
2023-01-02T11:56:46.528Z,97809.78
2023-01-02T11:59:18.767Z,97810.59
2023-01-02T12:01:59.127Z,97806.91
2023-01-02T12:04:27.658Z,97812.78
2023-01-02T12:07:22.953Z,97794.00
2023-01-02T12:10:01.705Z,97813.22
2023-01-02T12:12:51.366Z,97823.19
2023-01-02T12:15:58.573Z,97829.38
2023-01-02T12:18:38.881Z,97832.09
2023-01-02T12:21:17.122Z,97834.38
2023-01-02T12:24:07.694Z,97843.84
2023-01-02T12:26:42.214Z,97847.72
2023-01-02T12:29:46.623Z,97826.84
2023-01-02T12:32:51.938Z,97848.03
2023-01-02T12:35:36.145Z,97839.53
2023-01-02T12:38:08.971Z,97840.97
2023-01-02T12:40:47.626Z,97828.16
2023-01-02T12:43:44.787Z,97814.97
2023-01-02T12:46:24.801Z,97814.03
2023-01-02T12:49:08.399Z,97802.78
2023-01-02T12:51:44.416Z,97809.69
2023-01-02T12:54:29.716Z,97813.06
2023-01-02T12:57:09.791Z,97827.00
2023-01-02T13:00:00.834Z,97835.34
2023-01-02T13:02:46.634Z,97833.78
2023-01-02T13:05:19.284Z,97828.72
2023-01-02T13:07:51.791Z,97822.28
2023-01-02T13:10:23.167Z,97837.09
2023-01-02T13:12:54.075Z,97842.16
2023-01-02T13:15:25.722Z,97839.63
2023-01-02T13:18:03.871Z,97829.03
2023-01-02T13:20:44.126Z,97840.19
2023-01-02T13:23:29.037Z,97845.16
2023-01-02T13:26:01.108Z,97850.56
2023-01-02T13:28:30.692Z,97847.81
2023-01-02T13:31:35.807Z,97835.72
2023-01-02T13:33:55.765Z,97840.75
2023-01-02T13:36:27.103Z,97843.16
2023-01-02T13:38:57.998Z,97845.56
2023-01-02T13:41:28.497Z,97844.81
2023-01-02T13:44:02.040Z,97831.56
2023-01-02T13:49:23.912Z,97841.47
2023-01-02T13:52:01.266Z,97833.03
2023-01-02T13:54:38.115Z,97839.81
2023-01-02T13:57:32.882Z,97845.25
2023-01-02T14:00:04.447Z,97838.50
2023-01-02T14:02:32.659Z,97846.25
2023-01-02T14:05:00.949Z,97849.03
2023-01-02T14:07:45.154Z,97850.22
2023-01-02T14:10:49.097Z,97842.34
2023-01-02T14:13:30.759Z,97859.03
2023-01-02T14:16:47.572Z,97850.41
2023-01-02T14:19:23.939Z,97845.59
2023-01-02T14:22:05.137Z,97840.09
2023-01-02T14:24:36.595Z,97855.41
2023-01-02T14:27:06.991Z,97862.84
2023-01-02T14:29:49.041Z,97858.66
2023-01-02T14:32:25.808Z,97853.72
2023-01-02T14:34:58.135Z,97860.75
2023-01-02T14:37:37.566Z,97859.38
2023-01-02T14:40:17.987Z,97842.03
2023-01-02T14:43:13.182Z,97864.84
2023-01-02T14:45:45.459Z,97862.44
2023-01-02T14:48:19.177Z,97873.53
2023-01-02T14:50:50.208Z,97872.09
2023-01-02T14:53:22.687Z,97870.59
2023-01-02T14:55:56.474Z,97870.63
2023-01-02T14:58:37.963Z,97868.91
2023-01-02T15:01:08.446Z,97868.72
2023-01-02T15:03:47.779Z,97879.31
2023-01-02T15:06:24.317Z,97874.50
2023-01-02T15:08:55.426Z,97881.59
2023-01-02T15:11:43.476Z,97875.00
2023-01-02T15:14:21.920Z,97868.09
2023-01-02T15:16:57.213Z,97890.38
2023-01-02T15:19:29.639Z,97883.00
2023-01-02T15:21:58.105Z,97880.13
2023-01-02T15:24:27.864Z,97886.56
2023-01-02T15:26:57.524Z,97886.56
2023-01-02T15:29:27.754Z,97892.84
2023-01-02T15:31:58.085Z,97889.91
2023-01-02T15:34:32.206Z,97897.31
2023-01-02T15:37:04.360Z,97886.38
2023-01-02T15:39:35.948Z,97901.19
2023-01-02T15:42:11.917Z,97903.41
2023-01-02T15:44:58.646Z,97910.94
2023-01-02T15:47:28.418Z,97909.97
2023-01-02T15:49:59.266Z,97912.84
2023-01-02T15:52:31.337Z,97912.84
2023-01-02T15:55:00.788Z,97920.91
2023-01-02T15:57:31.918Z,97916.53
2023-01-02T16:00:01.604Z,97922.81
2023-01-02T16:02:35.227Z,97925.84
2023-01-02T16:05:14.834Z,97932.91
2023-01-02T16:07:44.088Z,97944.44
2023-01-02T16:10:20.086Z,97938.66
2023-01-02T16:12:53.551Z,97936.09
2023-01-02T16:15:25.336Z,97943.78
2023-01-02T16:17:55.531Z,97958.44
2023-01-02T16:20:28.342Z,97950.72
2023-01-02T16:22:59.654Z,97961.63
2023-01-02T16:25:30.327Z,97956.31
2023-01-02T16:28:02.442Z,97954.53
2023-01-02T16:30:38.296Z,97956.31
2023-01-02T16:33:21.927Z,97970.09
2023-01-02T16:36:00.687Z,97967.19
2023-01-02T16:38:29.872Z,97967.81
2023-01-02T16:41:12.191Z,97972.81
2023-01-02T16:43:47.234Z,97972.81
2023-01-02T16:46:17.164Z,97969.91
2023-01-02T16:48:45.692Z,97987.69
2023-01-02T16:51:17.213Z,97983.84
2023-01-02T16:53:45.968Z,97975.06
2023-01-02T16:56:16.338Z,97984.19
2023-01-02T16:58:44.333Z,97991.75
2023-01-02T17:01:14.321Z,97983.22
2023-01-02T17:03:43.024Z,97994.91
2023-01-02T17:06:14.528Z,97982.50
2023-01-02T17:08:44.575Z,97982.66
2023-01-02T17:11:16.310Z,97986.22
2023-01-02T17:13:44.642Z,97976.25
2023-01-02T17:16:13.232Z,97988.84
2023-01-02T17:18:41.350Z,97986.13
2023-01-02T17:21:10.081Z,97993.00
2023-01-02T17:23:38.375Z,97996.16
2023-01-02T17:26:07.803Z,97995.88
2023-01-02T17:28:36.735Z,97993.47
2023-01-02T17:31:04.834Z,98007.41
2023-01-02T17:33:33.141Z,98003.09
2023-01-02T17:36:01.091Z,98016.41
2023-01-02T17:38:29.111Z,98013.94
2023-01-02T17:40:58.749Z,98010.59
2023-01-02T17:43:27.934Z,97988.38
2023-01-02T17:45:56.165Z,98018.81
2023-01-02T17:48:25.402Z,98014.69
2023-01-02T17:50:54.098Z,98016.34
2023-01-02T17:53:22.665Z,98005.50
2023-01-02T17:56:21.773Z,98016.59
2023-01-02T17:58:44.549Z,98016.91
2023-01-02T18:01:17.845Z,98018.53
2023-01-02T18:03:46.169Z,98012.16
2023-01-02T18:06:14.955Z,98028.69
2023-01-02T18:08:43.618Z,98014.03
2023-01-02T18:11:13.788Z,98009.41
2023-01-02T18:13:46.650Z,98011.16
2023-01-02T18:16:16.771Z,98009.19
2023-01-02T18:18:46.003Z,98007.59
2023-01-02T18:21:16.524Z,98002.97
2023-01-02T18:23:45.253Z,98012.94
2023-01-02T18:26:15.535Z,98018.25
2023-01-02T18:28:50.983Z,98007.94
2023-01-02T18:31:20.904Z,98015.00
2023-01-02T18:33:49.122Z,98025.38
2023-01-02T18:36:22.819Z,98035.88
2023-01-02T18:38:52.555Z,98046.56
2023-01-02T18:41:23.558Z,98050.38
2023-01-02T18:43:57.748Z,98052.50
2023-01-02T18:47:04.671Z,98054.97
2023-01-02T18:49:26.350Z,98062.69
2023-01-02T18:52:02.077Z,98067.22
2023-01-02T18:54:31.843Z,98059.59
2023-01-02T18:57:01.876Z,98046.34
2023-01-02T18:59:33.294Z,98055.94
2023-01-02T19:02:03.693Z,98045.13
2023-01-02T19:04:36.713Z,98051.16
2023-01-02T19:07:24.422Z,98064.81
2023-01-02T19:09:57.604Z,98062.09
2023-01-02T19:12:45.118Z,98072.25
2023-01-02T19:15:37.791Z,98069.75
2023-01-02T19:18:23.304Z,98072.66
2023-01-02T19:21:00.171Z,98069.19
2023-01-02T19:23:33.169Z,98068.78
2023-01-02T19:26:13.543Z,98088.97
2023-01-02T19:28:49.352Z,98076.75
2023-01-02T19:31:19.286Z,98084.25
2023-01-02T19:33:52.946Z,98097.41
2023-01-02T19:36:25.829Z,98089.75
2023-01-02T19:38:53.907Z,98099.16
2023-01-02T19:41:43.098Z,98100.03
2023-01-02T19:44:10.929Z,98100.78
2023-01-02T19:46:40.569Z,98101.09
2023-01-02T19:49:08.532Z,98111.03
2023-01-02T19:51:36.404Z,98078.78
2023-01-02T19:54:04.745Z,98090.25
2023-01-02T19:56:33.412Z,98117.16
2023-01-02T19:59:01.296Z,98124.94
2023-01-02T20:01:29.243Z,98110.63
2023-01-02T20:03:59.044Z,98137.03
2023-01-02T20:06:28.522Z,98142.84
2023-01-02T20:08:56.845Z,98145.97
2023-01-02T20:11:42.161Z,98149.00
2023-01-02T20:14:10.285Z,98167.84
2023-01-02T20:16:38.676Z,98168.03
2023-01-02T20:19:08.132Z,98180.34
2023-01-02T20:21:36.367Z,98184.66
2023-01-02T20:24:05.030Z,98209.47
2023-01-02T20:26:33.445Z,98212.09
2023-01-02T20:29:02.001Z,98199.91
2023-01-02T20:31:30.164Z,98209.00
2023-01-02T20:33:58.877Z,98215.59
2023-01-02T20:36:28.624Z,98215.00
2023-01-02T20:38:57.562Z,98229.13
2023-01-02T20:41:26.448Z,98229.09
2023-01-02T20:43:55.198Z,98232.94
2023-01-02T20:46:23.449Z,98252.88
2023-01-02T20:48:51.846Z,98246.53
2023-01-02T20:51:20.310Z,98241.19
2023-01-02T20:53:50.052Z,98234.44
2023-01-02T20:56:18.382Z,98237.91
2023-01-02T20:58:47.096Z,98232.59
2023-01-02T21:01:15.662Z,98268.25
2023-01-02T21:03:44.364Z,98268.03
2023-01-02T21:30:48.085Z,98315.56
2023-01-02T21:33:22.950Z,98306.38
2023-01-02T21:35:52.920Z,98299.41
2023-01-02T21:38:26.544Z,98292.13
2023-01-02T21:44:13.268Z,98331.47
2023-01-02T21:46:42.407Z,98313.81
2023-01-02T21:49:11.653Z,98302.06
2023-01-02T21:51:40.309Z,98311.00
2023-01-02T21:54:09.002Z,98312.81
2023-01-02T21:56:39.144Z,98327.63
2023-01-02T21:59:08.242Z,98311.97
2023-01-02T22:01:39.712Z,98338.97
2023-01-02T22:04:09.583Z,98328.00
2023-01-02T22:06:45.685Z,98354.53
2023-01-02T22:09:33.419Z,98343.47
2023-01-02T22:12:07.457Z,98331.84
2023-01-02T22:14:40.025Z,98328.41
2023-01-02T22:17:11.930Z,98377.41
2023-01-02T22:19:40.955Z,98334.66
2023-01-02T22:22:11.565Z,98356.81
2023-01-02T22:24:44.884Z,98358.25
2023-01-02T22:27:17.834Z,98367.47
2023-01-02T22:30:20.503Z,98380.34
2023-01-02T22:32:42.062Z,98355.22
2023-01-02T22:35:11.992Z,98357.88
2023-01-02T22:37:40.686Z,98375.38
2023-01-02T22:40:09.890Z,98398.00
2023-01-02T22:43:05.612Z,98369.84
2023-01-02T22:45:47.645Z,98381.47
2023-01-02T22:52:09.358Z,98378.66
2023-01-02T22:54:41.187Z,98372.13
2023-01-02T23:01:20.681Z,98389.94
2023-01-02T23:04:21.472Z,98386.63
2023-01-02T23:07:22.274Z,98403.34
2023-01-02T23:09:43.402Z,98379.22
2023-01-02T23:12:17.560Z,98393.22
2023-01-02T23:14:49.485Z,98402.16
2023-01-02T23:20:35.312Z,98395.38
2023-01-02T23:23:06.957Z,98411.63
2023-01-02T23:25:38.953Z,98428.13
2023-01-02T23:28:31.974Z,98439.28
2023-01-02T23:31:01.719Z,98427.91
2023-01-02T23:36:32.873Z,98443.69
2023-01-02T23:39:20.379Z,98426.66
2023-01-02T23:41:52.553Z,98428.78
2023-01-02T23:44:28.653Z,98436.06
2023-01-02T23:47:08.624Z,98425.75
2023-01-02T23:49:44.658Z,98422.13
2023-01-02T23:52:18.511Z,98429.88
2023-01-02T23:54:47.785Z,98445.91
